sensor_id;sensor_type;location;lat;lon;timestamp;temperature;humidity
22956;DHT22;40888;48.148;11.526;2023-04-30T00:02:24;11.60;99.90
22956;DHT22;40888;48.148;11.526;2023-04-30T00:04:50;11.60;99.90
22956;DHT22;40888;48.148;11.526;2023-04-30T00:07:15;11.60;99.90
22956;DHT22;40888;48.148;11.526;2023-04-30T00:09:41;11.60;99.90
22956;DHT22;40888;48.148;11.526;2023-04-30T00:12:07;11.70;99.90
22956;DHT22;40888;48.148;11.526;2023-04-30T00:14:33;11.80;99.90
22956;DHT22;40888;48.148;11.526;2023-04-30T00:16:58;11.70;99.90
22956;DHT22;40888;48.148;11.526;2023-04-30T00:19:24;11.70;99.90
22956;DHT22;40888;48.148;11.526;2023-04-30T00:21:50;11.60;99.90
22956;DHT22;40888;48.148;11.526;2023-04-30T00:24:16;11.60;99.90
22956;DHT22;40888;48.148;11.526;2023-04-30T00:26:41;11.50;99.90
22956;DHT22;40888;48.148;11.526;2023-04-30T00:29:09;11.50;99.90
22956;DHT22;40888;48.148;11.526;2023-04-30T00:31:35;11.60;99.90
22956;DHT22;40888;48.148;11.526;2023-04-30T00:34:00;11.60;99.90
22956;DHT22;40888;48.148;11.526;2023-04-30T00:36:26;11.60;99.90
22956;DHT22;40888;48.148;11.526;2023-04-30T00:38:52;11.70;99.90
22956;DHT22;40888;48.148;11.526;2023-04-30T00:41:17;11.40;99.90
22956;DHT22;40888;48.148;11.526;2023-04-30T00:43:43;11.30;99.90
22956;DHT22;40888;48.148;11.526;2023-04-30T00:46:11;11.20;99.90
22956;DHT22;40888;48.148;11.526;2023-04-30T00:48:37;11.20;99.90
22956;DHT22;40888;48.148;11.526;2023-04-30T00:51:03;11.00;99.90
22956;DHT22;40888;48.148;11.526;2023-04-30T00:53:30;11.10;99.90
22956;DHT22;40888;48.148;11.526;2023-04-30T00:55:56;11.30;99.90
22956;DHT22;40888;48.148;11.526;2023-04-30T00:58:22;11.40;99.90
22956;DHT22;40888;48.148;11.526;2023-04-30T01:00:48;11.20;99.90
22956;DHT22;40888;48.148;11.526;2023-04-30T01:03:14;11.40;99.90
22956;DHT22;40888;48.148;11.526;2023-04-30T01:05:40;11.40;99.90
22956;DHT22;40888;48.148;11.526;2023-04-30T01:08:07;11.30;99.90
22956;DHT22;40888;48.148;11.526;2023-04-30T01:11:25;11.40;99.90
22956;DHT22;40888;48.148;11.526;2023-04-30T01:13:39;11.40;99.90
22956;DHT22;40888;48.148;11.526;2023-04-30T01:16:24;11.40;99.90
22956;DHT22;40888;48.148;11.526;2023-04-30T01:19:03;11.40;99.90
22956;DHT22;40888;48.148;11.526;2023-04-30T01:21:31;11.40;99.90
22956;DHT22;40888;48.148;11.526;2023-04-30T01:24:05;11.50;99.90
22956;DHT22;40888;48.148;11.526;2023-04-30T01:26:44;11.50;99.90
22956;DHT22;40888;48.148;11.526;2023-04-30T01:29:18;11.50;99.90
22956;DHT22;40888;48.148;11.526;2023-04-30T01:31:44;11.40;99.90
22956;DHT22;40888;48.148;11.526;2023-04-30T01:34:10;11.50;99.90
22956;DHT22;40888;48.148;11.526;2023-04-30T01:42:22;11.50;99.90
22956;DHT22;40888;48.148;11.526;2023-04-30T01:45:00;11.50;99.90
22956;DHT22;40888;48.148;11.526;2023-04-30T01:50:36;11.30;99.90
22956;DHT22;40888;48.148;11.526;2023-04-30T01:53:06;11.30;99.90
22956;DHT22;40888;48.148;11.526;2023-04-30T01:55:40;11.20;99.90
22956;DHT22;40888;48.148;11.526;2023-04-30T01:58:11;11.20;99.90
22956;DHT22;40888;48.148;11.526;2023-04-30T02:00:37;11.20;99.90
22956;DHT22;40888;48.148;11.526;2023-04-30T02:03:03;11.30;99.90
22956;DHT22;40888;48.148;11.526;2023-04-30T02:05:29;11.30;99.90
22956;DHT22;40888;48.148;11.526;2023-04-30T02:07:55;11.30;99.90
22956;DHT22;40888;48.148;11.526;2023-04-30T02:10:22;11.30;99.90
22956;DHT22;40888;48.148;11.526;2023-04-30T02:12:48;11.30;99.90
22956;DHT22;40888;48.148;11.526;2023-04-30T02:15:14;11.30;99.90
22956;DHT22;40888;48.148;11.526;2023-04-30T02:17:40;11.40;99.90
22956;DHT22;40888;48.148;11.526;2023-04-30T02:20:06;11.40;99.90
22956;DHT22;40888;48.148;11.526;2023-04-30T02:22:32;11.30;99.90
22956;DHT22;40888;48.148;11.526;2023-04-30T02:24:58;11.30;99.90
22956;DHT22;40888;48.148;11.526;2023-04-30T02:27:24;11.20;99.90
22956;DHT22;40888;48.148;11.526;2023-04-30T02:29:51;11.10;99.90
22956;DHT22;40888;48.148;11.526;2023-04-30T02:32:17;11.10;99.90
22956;DHT22;40888;48.148;11.526;2023-04-30T02:34:42;11.20;99.90
22956;DHT22;40888;48.148;11.526;2023-04-30T02:37:09;11.10;99.90
22956;DHT22;40888;48.148;11.526;2023-04-30T02:39:34;11.00;99.90
22956;DHT22;40888;48.148;11.526;2023-04-30T02:42:00;11.00;99.90
22956;DHT22;40888;48.148;11.526;2023-04-30T02:44:27;11.00;99.90
22956;DHT22;40888;48.148;11.526;2023-04-30T02:46:53;11.00;99.90
22956;DHT22;40888;48.148;11.526;2023-04-30T02:49:18;11.10;99.90
22956;DHT22;40888;48.148;11.526;2023-04-30T02:51:44;11.10;99.90
22956;DHT22;40888;48.148;11.526;2023-04-30T02:54:10;11.10;99.90
22956;DHT22;40888;48.148;11.526;2023-04-30T02:56:36;11.10;99.90
22956;DHT22;40888;48.148;11.526;2023-04-30T02:59:03;11.10;99.90
22956;DHT22;40888;48.148;11.526;2023-04-30T03:01:29;11.10;99.90
22956;DHT22;40888;48.148;11.526;2023-04-30T03:03:54;10.90;99.90
22956;DHT22;40888;48.148;11.526;2023-04-30T03:06:20;10.90;99.90
22956;DHT22;40888;48.148;11.526;2023-04-30T03:08:46;10.80;99.90
22956;DHT22;40888;48.148;11.526;2023-04-30T03:11:12;10.80;99.90
22956;DHT22;40888;48.148;11.526;2023-04-30T03:13:38;10.80;99.90
22956;DHT22;40888;48.148;11.526;2023-04-30T03:16:04;10.50;99.90
22956;DHT22;40888;48.148;11.526;2023-04-30T03:18:31;10.60;99.90
22956;DHT22;40888;48.148;11.526;2023-04-30T03:20:56;10.70;99.90
22956;DHT22;40888;48.148;11.526;2023-04-30T03:23:23;10.80;99.90
22956;DHT22;40888;48.148;11.526;2023-04-30T03:25:49;10.70;99.90
22956;DHT22;40888;48.148;11.526;2023-04-30T03:28:15;10.80;99.90
22956;DHT22;40888;48.148;11.526;2023-04-30T03:30:41;10.80;99.90
22956;DHT22;40888;48.148;11.526;2023-04-30T03:33:07;10.80;99.90
22956;DHT22;40888;48.148;11.526;2023-04-30T03:35:34;10.80;99.90
22956;DHT22;40888;48.148;11.526;2023-04-30T03:38:00;10.70;99.90
22956;DHT22;40888;48.148;11.526;2023-04-30T03:40:26;10.80;99.90
22956;DHT22;40888;48.148;11.526;2023-04-30T03:42:52;10.60;99.90
22956;DHT22;40888;48.148;11.526;2023-04-30T03:45:18;10.70;99.90
22956;DHT22;40888;48.148;11.526;2023-04-30T03:47:44;10.60;99.90
22956;DHT22;40888;48.148;11.526;2023-04-30T03:50:10;10.60;99.90
22956;DHT22;40888;48.148;11.526;2023-04-30T03:52:36;10.70;99.90
22956;DHT22;40888;48.148;11.526;2023-04-30T03:55:03;10.60;99.90
22956;DHT22;40888;48.148;11.526;2023-04-30T03:57:29;10.60;99.90
22956;DHT22;40888;48.148;11.526;2023-04-30T03:59:55;10.60;99.90
22956;DHT22;40888;48.148;11.526;2023-04-30T04:02:21;10.50;99.90
22956;DHT22;40888;48.148;11.526;2023-04-30T04:04:47;10.40;99.90
22956;DHT22;40888;48.148;11.526;2023-04-30T04:07:13;10.30;99.90
22956;DHT22;40888;48.148;11.526;2023-04-30T04:09:39;10.40;99.90
22956;DHT22;40888;48.148;11.526;2023-04-30T04:12:05;10.50;99.90
22956;DHT22;40888;48.148;11.526;2023-04-30T04:14:31;10.50;99.90
22956;DHT22;40888;48.148;11.526;2023-04-30T04:16:57;10.40;99.90
22956;DHT22;40888;48.148;11.526;2023-04-30T04:19:25;10.30;99.90
22956;DHT22;40888;48.148;11.526;2023-04-30T04:21:51;10.30;99.90
22956;DHT22;40888;48.148;11.526;2023-04-30T04:24:16;10.40;99.90
22956;DHT22;40888;48.148;11.526;2023-04-30T04:26:42;10.40;99.90
22956;DHT22;40888;48.148;11.526;2023-04-30T04:29:09;10.40;99.90
22956;DHT22;40888;48.148;11.526;2023-04-30T04:31:34;10.50;99.90
22956;DHT22;40888;48.148;11.526;2023-04-30T04:34:02;10.40;99.90
22956;DHT22;40888;48.148;11.526;2023-04-30T04:36:29;10.30;99.90
22956;DHT22;40888;48.148;11.526;2023-04-30T04:38:56;10.30;99.90
22956;DHT22;40888;48.148;11.526;2023-04-30T04:41:31;10.40;99.90
22956;DHT22;40888;48.148;11.526;2023-04-30T04:44:03;10.30;99.90
22956;DHT22;40888;48.148;11.526;2023-04-30T04:46:30;10.40;99.90
22956;DHT22;40888;48.148;11.526;2023-04-30T04:48:56;10.40;99.90
22956;DHT22;40888;48.148;11.526;2023-04-30T04:51:23;10.50;99.90
22956;DHT22;40888;48.148;11.526;2023-04-30T04:53:49;10.60;99.90
22956;DHT22;40888;48.148;11.526;2023-04-30T04:56:15;10.40;99.90
22956;DHT22;40888;48.148;11.526;2023-04-30T04:58:41;10.40;99.90
22956;DHT22;40888;48.148;11.526;2023-04-30T05:01:07;10.30;99.90
22956;DHT22;40888;48.148;11.526;2023-04-30T05:03:34;10.30;99.90
22956;DHT22;40888;48.148;11.526;2023-04-30T05:06:04;10.40;99.90
22956;DHT22;40888;48.148;11.526;2023-04-30T05:08:30;10.40;99.90
22956;DHT22;40888;48.148;11.526;2023-04-30T05:10:56;10.50;99.90
22956;DHT22;40888;48.148;11.526;2023-04-30T05:13:22;10.50;99.90
22956;DHT22;40888;48.148;11.526;2023-04-30T05:15:51;10.50;99.90
22956;DHT22;40888;48.148;11.526;2023-04-30T05:18:18;10.50;99.90
22956;DHT22;40888;48.148;11.526;2023-04-30T05:20:44;10.50;99.90
22956;DHT22;40888;48.148;11.526;2023-04-30T05:23:09;10.60;99.90
22956;DHT22;40888;48.148;11.526;2023-04-30T05:25:35;10.60;99.90
22956;DHT22;40888;48.148;11.526;2023-04-30T05:28:01;10.60;99.90
22956;DHT22;40888;48.148;11.526;2023-04-30T05:30:28;10.40;99.90
22956;DHT22;40888;48.148;11.526;2023-04-30T05:32:54;10.40;99.90
22956;DHT22;40888;48.148;11.526;2023-04-30T05:35:20;10.50;99.90
22956;DHT22;40888;48.148;11.526;2023-04-30T05:37:46;10.60;99.90
22956;DHT22;40888;48.148;11.526;2023-04-30T05:40:12;10.50;99.90
22956;DHT22;40888;48.148;11.526;2023-04-30T05:42:38;10.60;99.90
22956;DHT22;40888;48.148;11.526;2023-04-30T05:45:06;10.60;99.90
22956;DHT22;40888;48.148;11.526;2023-04-30T05:47:32;10.30;99.90
22956;DHT22;40888;48.148;11.526;2023-04-30T05:49:58;10.50;99.90
22956;DHT22;40888;48.148;11.526;2023-04-30T05:52:23;10.50;99.90
22956;DHT22;40888;48.148;11.526;2023-04-30T05:54:49;10.60;99.90
22956;DHT22;40888;48.148;11.526;2023-04-30T05:57:15;10.70;99.90
22956;DHT22;40888;48.148;11.526;2023-04-30T05:59:41;10.70;99.90
22956;DHT22;40888;48.148;11.526;2023-04-30T06:02:08;10.80;99.90
22956;DHT22;40888;48.148;11.526;2023-04-30T06:04:34;10.80;99.90
22956;DHT22;40888;48.148;11.526;2023-04-30T06:06:59;10.70;99.90
22956;DHT22;40888;48.148;11.526;2023-04-30T06:09:25;10.80;99.90
22956;DHT22;40888;48.148;11.526;2023-04-30T06:11:51;10.70;99.90
22956;DHT22;40888;48.148;11.526;2023-04-30T06:14:18;10.80;99.90
22956;DHT22;40888;48.148;11.526;2023-04-30T06:16:44;11.00;99.90
22956;DHT22;40888;48.148;11.526;2023-04-30T06:19:11;11.00;99.90
22956;DHT22;40888;48.148;11.526;2023-04-30T06:21:37;11.00;99.90
22956;DHT22;40888;48.148;11.526;2023-04-30T06:24:03;11.10;99.90
22956;DHT22;40888;48.148;11.526;2023-04-30T06:26:29;11.00;99.90
22956;DHT22;40888;48.148;11.526;2023-04-30T06:28:55;11.10;99.90
22956;DHT22;40888;48.148;11.526;2023-04-30T06:31:21;11.20;99.90
22956;DHT22;40888;48.148;11.526;2023-04-30T06:33:47;11.20;99.90
22956;DHT22;40888;48.148;11.526;2023-04-30T06:36:13;11.10;99.90
22956;DHT22;40888;48.148;11.526;2023-04-30T06:38:39;11.30;99.90
22956;DHT22;40888;48.148;11.526;2023-04-30T06:41:05;11.50;99.90
22956;DHT22;40888;48.148;11.526;2023-04-30T06:43:31;11.50;99.90
22956;DHT22;40888;48.148;11.526;2023-04-30T06:45:56;11.60;99.90
22956;DHT22;40888;48.148;11.526;2023-04-30T06:48:22;11.80;99.90
22956;DHT22;40888;48.148;11.526;2023-04-30T06:50:48;11.90;99.90
22956;DHT22;40888;48.148;11.526;2023-04-30T06:53:14;12.00;99.90
22956;DHT22;40888;48.148;11.526;2023-04-30T06:55:41;12.00;99.90
22956;DHT22;40888;48.148;11.526;2023-04-30T06:58:07;12.00;99.90
22956;DHT22;40888;48.148;11.526;2023-04-30T07:00:33;12.10;99.90
22956;DHT22;40888;48.148;11.526;2023-04-30T07:02:59;12.00;99.90
22956;DHT22;40888;48.148;11.526;2023-04-30T07:05:31;12.30;99.90
22956;DHT22;40888;48.148;11.526;2023-04-30T07:07:59;12.20;99.90
22956;DHT22;40888;48.148;11.526;2023-04-30T07:10:26;12.50;99.90
22956;DHT22;40888;48.148;11.526;2023-04-30T07:12:51;12.50;99.90
22956;DHT22;40888;48.148;11.526;2023-04-30T07:15:17;12.60;99.90
22956;DHT22;40888;48.148;11.526;2023-04-30T07:17:43;12.10;99.90
22956;DHT22;40888;48.148;11.526;2023-04-30T07:20:09;12.10;99.90
22956;DHT22;40888;48.148;11.526;2023-04-30T07:22:35;12.40;99.90
22956;DHT22;40888;48.148;11.526;2023-04-30T07:25:01;12.50;99.90
22956;DHT22;40888;48.148;11.526;2023-04-30T07:27:27;12.20;99.90
22956;DHT22;40888;48.148;11.526;2023-04-30T07:29:53;12.40;99.90
22956;DHT22;40888;48.148;11.526;2023-04-30T07:32:19;12.70;99.90
22956;DHT22;40888;48.148;11.526;2023-04-30T07:34:45;12.80;99.90
22956;DHT22;40888;48.148;11.526;2023-04-30T07:37:11;12.80;99.90
22956;DHT22;40888;48.148;11.526;2023-04-30T07:39:36;12.60;99.90
22956;DHT22;40888;48.148;11.526;2023-04-30T07:42:03;12.80;99.90
22956;DHT22;40888;48.148;11.526;2023-04-30T07:44:29;12.80;99.90
22956;DHT22;40888;48.148;11.526;2023-04-30T07:46:55;12.90;99.90
22956;DHT22;40888;48.148;11.526;2023-04-30T07:49:24;13.30;99.90
22956;DHT22;40888;48.148;11.526;2023-04-30T07:51:50;13.40;99.90
22956;DHT22;40888;48.148;11.526;2023-04-30T07:54:16;13.30;99.90
22956;DHT22;40888;48.148;11.526;2023-04-30T07:56:42;13.30;99.90
22956;DHT22;40888;48.148;11.526;2023-04-30T07:59:07;13.30;99.90
22956;DHT22;40888;48.148;11.526;2023-04-30T08:01:33;13.30;99.90
22956;DHT22;40888;48.148;11.526;2023-04-30T08:03:59;13.30;99.90
22956;DHT22;40888;48.148;11.526;2023-04-30T08:06:25;12.90;99.90
22956;DHT22;40888;48.148;11.526;2023-04-30T08:08:54;13.40;99.90
22956;DHT22;40888;48.148;11.526;2023-04-30T08:11:20;13.50;99.90
22956;DHT22;40888;48.148;11.526;2023-04-30T08:13:46;13.40;99.90
22956;DHT22;40888;48.148;11.526;2023-04-30T08:16:11;13.40;99.90
22956;DHT22;40888;48.148;11.526;2023-04-30T08:18:37;13.30;99.90
22956;DHT22;40888;48.148;11.526;2023-04-30T08:21:04;13.80;99.90
22956;DHT22;40888;48.148;11.526;2023-04-30T08:23:30;13.70;99.90
22956;DHT22;40888;48.148;11.526;2023-04-30T08:25:56;13.60;99.90
22956;DHT22;40888;48.148;11.526;2023-04-30T08:28:22;13.50;99.90
22956;DHT22;40888;48.148;11.526;2023-04-30T08:30:47;13.50;99.90
22956;DHT22;40888;48.148;11.526;2023-04-30T08:33:13;14.00;99.90
22956;DHT22;40888;48.148;11.526;2023-04-30T08:35:39;14.10;99.90
22956;DHT22;40888;48.148;11.526;2023-04-30T08:38:05;14.10;99.90
22956;DHT22;40888;48.148;11.526;2023-04-30T08:40:34;14.20;99.90
22956;DHT22;40888;48.148;11.526;2023-04-30T08:43:07;14.30;99.90
22956;DHT22;40888;48.148;11.526;2023-04-30T08:45:34;14.20;99.90
22956;DHT22;40888;48.148;11.526;2023-04-30T08:48:04;14.10;99.90
22956;DHT22;40888;48.148;11.526;2023-04-30T08:50:33;14.20;99.90
22956;DHT22;40888;48.148;11.526;2023-04-30T08:53:00;14.30;99.90
22956;DHT22;40888;48.148;11.526;2023-04-30T08:55:26;14.10;99.90
22956;DHT22;40888;48.148;11.526;2023-04-30T08:57:52;13.80;99.90
22956;DHT22;40888;48.148;11.526;2023-04-30T09:00:18;14.20;99.90
22956;DHT22;40888;48.148;11.526;2023-04-30T09:02:45;14.10;99.90
22956;DHT22;40888;48.148;11.526;2023-04-30T09:05:13;14.20;99.90
22956;DHT22;40888;48.148;11.526;2023-04-30T09:07:44;14.40;99.90
22956;DHT22;40888;48.148;11.526;2023-04-30T09:10:18;14.20;99.90
22956;DHT22;40888;48.148;11.526;2023-04-30T09:13:03;14.40;99.90
22956;DHT22;40888;48.148;11.526;2023-04-30T09:15:30;14.30;99.90
22956;DHT22;40888;48.148;11.526;2023-04-30T09:18:13;14.30;99.90
22956;DHT22;40888;48.148;11.526;2023-04-30T09:20:59;14.20;99.90
22956;DHT22;40888;48.148;11.526;2023-04-30T09:23:26;13.80;99.90
22956;DHT22;40888;48.148;11.526;2023-04-30T09:25:52;14.20;99.90
22956;DHT22;40888;48.148;11.526;2023-04-30T09:28:18;14.20;99.90
22956;DHT22;40888;48.148;11.526;2023-04-30T09:30:48;14.10;99.90
22956;DHT22;40888;48.148;11.526;2023-04-30T09:33:14;13.90;99.90
22956;DHT22;40888;48.148;11.526;2023-04-30T09:35:40;14.10;99.90
22956;DHT22;40888;48.148;11.526;2023-04-30T09:38:06;14.10;99.90
22956;DHT22;40888;48.148;11.526;2023-04-30T09:40:38;14.30;99.90
22956;DHT22;40888;48.148;11.526;2023-04-30T09:43:05;14.40;99.90
22956;DHT22;40888;48.148;11.526;2023-04-30T09:45:44;14.40;99.90
22956;DHT22;40888;48.148;11.526;2023-04-30T09:48:17;14.10;99.90
22956;DHT22;40888;48.148;11.526;2023-04-30T09:50:43;14.10;99.90
22956;DHT22;40888;48.148;11.526;2023-04-30T09:53:14;14.30;99.90
22956;DHT22;40888;48.148;11.526;2023-04-30T09:55:45;14.60;99.90
22956;DHT22;40888;48.148;11.526;2023-04-30T09:58:12;14.50;99.90
22956;DHT22;40888;48.148;11.526;2023-04-30T10:00:38;14.30;99.90
22956;DHT22;40888;48.148;11.526;2023-04-30T10:03:12;14.40;99.90
22956;DHT22;40888;48.148;11.526;2023-04-30T10:05:43;14.40;99.90
22956;DHT22;40888;48.148;11.526;2023-04-30T10:08:27;14.50;99.90
22956;DHT22;40888;48.148;11.526;2023-04-30T10:10:58;14.50;99.90
22956;DHT22;40888;48.148;11.526;2023-04-30T10:13:31;14.40;99.90
22956;DHT22;40888;48.148;11.526;2023-04-30T10:16:00;14.30;99.90
22956;DHT22;40888;48.148;11.526;2023-04-30T10:18:36;14.30;99.90
22956;DHT22;40888;48.148;11.526;2023-04-30T10:21:06;14.30;99.90
22956;DHT22;40888;48.148;11.526;2023-04-30T10:23:37;14.40;99.90
22956;DHT22;40888;48.148;11.526;2023-04-30T10:26:04;14.40;99.90
22956;DHT22;40888;48.148;11.526;2023-04-30T10:28:31;14.40;99.90
22956;DHT22;40888;48.148;11.526;2023-04-30T10:30:57;14.50;99.90
22956;DHT22;40888;48.148;11.526;2023-04-30T10:36:21;14.40;99.90
22956;DHT22;40888;48.148;11.526;2023-04-30T10:38:49;14.70;99.90
22956;DHT22;40888;48.148;11.526;2023-04-30T10:41:15;14.70;99.90
22956;DHT22;40888;48.148;11.526;2023-04-30T10:43:46;14.90;99.90
22956;DHT22;40888;48.148;11.526;2023-04-30T10:46:21;14.90;99.90
22956;DHT22;40888;48.148;11.526;2023-04-30T10:48:48;14.90;99.90
22956;DHT22;40888;48.148;11.526;2023-04-30T10:51:14;15.20;99.90
22956;DHT22;40888;48.148;11.526;2023-04-30T10:53:41;15.30;99.90
22956;DHT22;40888;48.148;11.526;2023-04-30T10:56:07;15.40;99.90
22956;DHT22;40888;48.148;11.526;2023-04-30T10:58:37;15.20;99.90
22956;DHT22;40888;48.148;11.526;2023-04-30T11:01:07;15.70;99.90
22956;DHT22;40888;48.148;11.526;2023-04-30T11:03:34;16.00;99.90
22956;DHT22;40888;48.148;11.526;2023-04-30T11:06:07;15.80;99.90
22956;DHT22;40888;48.148;11.526;2023-04-30T11:08:37;15.90;99.90
22956;DHT22;40888;48.148;11.526;2023-04-30T11:11:04;16.00;99.90
22956;DHT22;40888;48.148;11.526;2023-04-30T11:13:57;16.00;98.70
22956;DHT22;40888;48.148;11.526;2023-04-30T11:16:29;15.90;99.90
22956;DHT22;40888;48.148;11.526;2023-04-30T11:19:11;15.90;99.90
22956;DHT22;40888;48.148;11.526;2023-04-30T11:22:26;16.00;99.90
22956;DHT22;40888;48.148;11.526;2023-04-30T11:25:10;16.00;99.90
22956;DHT22;40888;48.148;11.526;2023-04-30T11:27:41;16.20;87.90
22956;DHT22;40888;48.148;11.526;2023-04-30T11:30:15;16.30;91.60
22956;DHT22;40888;48.148;11.526;2023-04-30T11:32:45;16.40;91.30
22956;DHT22;40888;48.148;11.526;2023-04-30T11:35:12;16.70;93.60
22956;DHT22;40888;48.148;11.526;2023-04-30T11:37:41;16.90;96.30
22956;DHT22;40888;48.148;11.526;2023-04-30T11:40:11;16.70;91.70
22956;DHT22;40888;48.148;11.526;2023-04-30T11:42:39;17.00;99.90
22956;DHT22;40888;48.148;11.526;2023-04-30T11:45:09;17.20;75.80
22956;DHT22;40888;48.148;11.526;2023-04-30T11:50:08;17.00;86.10
22956;DHT22;40888;48.148;11.526;2023-04-30T11:52:35;17.10;99.90
22956;DHT22;40888;48.148;11.526;2023-04-30T11:55:07;16.50;95.00
22956;DHT22;40888;48.148;11.526;2023-04-30T11:57:43;16.30;99.90
22956;DHT22;40888;48.148;11.526;2023-04-30T12:00:11;16.20;99.90
22956;DHT22;40888;48.148;11.526;2023-04-30T12:02:38;16.40;99.40
22956;DHT22;40888;48.148;11.526;2023-04-30T12:05:10;16.50;83.50
22956;DHT22;40888;48.148;11.526;2023-04-30T12:07:37;16.50;83.50
22956;DHT22;40888;48.148;11.526;2023-04-30T12:10:03;16.30;96.50
22956;DHT22;40888;48.148;11.526;2023-04-30T12:12:29;16.20;96.40
22956;DHT22;40888;48.148;11.526;2023-04-30T12:14:55;16.20;95.10
22956;DHT22;40888;48.148;11.526;2023-04-30T12:17:32;16.00;99.90
22956;DHT22;40888;48.148;11.526;2023-04-30T12:19:58;16.10;93.80
22956;DHT22;40888;48.148;11.526;2023-04-30T12:22:24;16.10;92.70
22956;DHT22;40888;48.148;11.526;2023-04-30T12:24:49;16.00;97.50
22956;DHT22;40888;48.148;11.526;2023-04-30T12:27:15;15.90;99.90
22956;DHT22;40888;48.148;11.526;2023-04-30T12:29:45;15.90;99.40
22956;DHT22;40888;48.148;11.526;2023-04-30T12:32:11;16.10;94.10
22956;DHT22;40888;48.148;11.526;2023-04-30T12:34:40;15.80;99.90
22956;DHT22;40888;48.148;11.526;2023-04-30T12:37:06;15.90;95.00
22956;DHT22;40888;48.148;11.526;2023-04-30T12:39:33;15.80;95.70
22956;DHT22;40888;48.148;11.526;2023-04-30T12:42:00;15.80;99.90
22956;DHT22;40888;48.148;11.526;2023-04-30T12:44:27;15.80;99.90
22956;DHT22;40888;48.148;11.526;2023-04-30T12:46:57;15.80;98.10
22956;DHT22;40888;48.148;11.526;2023-04-30T12:49:29;15.70;99.90
22956;DHT22;40888;48.148;11.526;2023-04-30T12:52:09;16.00;99.90
22956;DHT22;40888;48.148;11.526;2023-04-30T12:54:37;16.10;99.90
22956;DHT22;40888;48.148;11.526;2023-04-30T12:59:39;16.40;99.90
22956;DHT22;40888;48.148;11.526;2023-04-30T13:02:12;16.60;99.90
22956;DHT22;40888;48.148;11.526;2023-04-30T13:04:42;17.00;91.20
22956;DHT22;40888;48.148;11.526;2023-04-30T13:07:08;17.20;93.50
22956;DHT22;40888;48.148;11.526;2023-04-30T13:09:35;16.90;94.20
22956;DHT22;40888;48.148;11.526;2023-04-30T13:12:02;17.20;99.90
22956;DHT22;40888;48.148;11.526;2023-04-30T13:14:29;17.10;91.00
22956;DHT22;40888;48.148;11.526;2023-04-30T13:16:55;17.50;88.10
22956;DHT22;40888;48.148;11.526;2023-04-30T13:19:21;17.80;74.90
22956;DHT22;40888;48.148;11.526;2023-04-30T13:21:47;18.00;73.40
22956;DHT22;40888;48.148;11.526;2023-04-30T13:24:12;18.10;73.90
22956;DHT22;40888;48.148;11.526;2023-04-30T13:26:39;18.40;70.20
22956;DHT22;40888;48.148;11.526;2023-04-30T13:29:05;18.40;71.60
22956;DHT22;40888;48.148;11.526;2023-04-30T13:31:31;18.40;71.20
22956;DHT22;40888;48.148;11.526;2023-04-30T13:33:56;18.60;68.30
22956;DHT22;40888;48.148;11.526;2023-04-30T13:36:22;18.40;76.70
22956;DHT22;40888;48.148;11.526;2023-04-30T13:38:48;18.60;70.10
22956;DHT22;40888;48.148;11.526;2023-04-30T13:41:14;18.20;94.80
22956;DHT22;40888;48.148;11.526;2023-04-30T13:43:39;18.20;66.90
22956;DHT22;40888;48.148;11.526;2023-04-30T13:46:09;18.40;70.70
22956;DHT22;40888;48.148;11.526;2023-04-30T13:48:35;18.40;70.80
22956;DHT22;40888;48.148;11.526;2023-04-30T13:51:01;18.50;64.10
22956;DHT22;40888;48.148;11.526;2023-04-30T13:53:26;18.20;72.70
22956;DHT22;40888;48.148;11.526;2023-04-30T13:55:53;18.60;67.40
22956;DHT22;40888;48.148;11.526;2023-04-30T13:58:18;18.60;64.20
22956;DHT22;40888;48.148;11.526;2023-04-30T14:00:44;18.70;62.30
22956;DHT22;40888;48.148;11.526;2023-04-30T14:03:10;18.60;61.80
22956;DHT22;40888;48.148;11.526;2023-04-30T14:05:37;18.40;62.90
22956;DHT22;40888;48.148;11.526;2023-04-30T14:08:04;18.20;64.10
22956;DHT22;40888;48.148;11.526;2023-04-30T14:10:31;18.30;64.10
22956;DHT22;40888;48.148;11.526;2023-04-30T14:12:57;18.30;64.30
22956;DHT22;40888;48.148;11.526;2023-04-30T14:15:23;18.30;64.50
22956;DHT22;40888;48.148;11.526;2023-04-30T14:17:49;18.40;65.40
22956;DHT22;40888;48.148;11.526;2023-04-30T14:20:16;18.30;62.00
22956;DHT22;40888;48.148;11.526;2023-04-30T14:22:41;18.40;65.70
22956;DHT22;40888;48.148;11.526;2023-04-30T14:25:08;18.80;60.60
22956;DHT22;40888;48.148;11.526;2023-04-30T14:27:34;19.10;59.40
22956;DHT22;40888;48.148;11.526;2023-04-30T14:30:00;19.00;57.70
22956;DHT22;40888;48.148;11.526;2023-04-30T14:32:26;18.60;59.70
22956;DHT22;40888;48.148;11.526;2023-04-30T14:34:52;18.70;60.00
22956;DHT22;40888;48.148;11.526;2023-04-30T14:37:18;18.80;59.70
22956;DHT22;40888;48.148;11.526;2023-04-30T14:39:44;18.80;57.60
22956;DHT22;40888;48.148;11.526;2023-04-30T14:42:10;18.90;57.50
22956;DHT22;40888;48.148;11.526;2023-04-30T14:44:37;18.80;58.90
22956;DHT22;40888;48.148;11.526;2023-04-30T14:47:03;18.70;58.10
22956;DHT22;40888;48.148;11.526;2023-04-30T14:49:29;18.30;60.70
22956;DHT22;40888;48.148;11.526;2023-04-30T14:51:55;18.40;58.90
22956;DHT22;40888;48.148;11.526;2023-04-30T14:54:21;18.40;58.80
22956;DHT22;40888;48.148;11.526;2023-04-30T14:56:47;18.30;59.90
22956;DHT22;40888;48.148;11.526;2023-04-30T14:59:13;18.20;59.70
22956;DHT22;40888;48.148;11.526;2023-04-30T15:01:39;18.00;59.80
22956;DHT22;40888;48.148;11.526;2023-04-30T15:04:05;17.80;60.80
22956;DHT22;40888;48.148;11.526;2023-04-30T15:06:32;17.60;60.30
22956;DHT22;40888;48.148;11.526;2023-04-30T15:08:58;17.60;61.70
22956;DHT22;40888;48.148;11.526;2023-04-30T15:11:24;17.70;61.30
22956;DHT22;40888;48.148;11.526;2023-04-30T15:13:50;17.70;62.70
22956;DHT22;40888;48.148;11.526;2023-04-30T15:16:16;17.80;61.40
22956;DHT22;40888;48.148;11.526;2023-04-30T15:18:42;17.90;61.30
22956;DHT22;40888;48.148;11.526;2023-04-30T15:21:08;17.90;61.40
22956;DHT22;40888;48.148;11.526;2023-04-30T15:23:34;18.30;60.10
22956;DHT22;40888;48.148;11.526;2023-04-30T15:26:00;18.50;59.70
22956;DHT22;40888;48.148;11.526;2023-04-30T15:28:27;18.60;60.10
22956;DHT22;40888;48.148;11.526;2023-04-30T15:30:53;18.50;60.50
22956;DHT22;40888;48.148;11.526;2023-04-30T15:33:19;18.50;59.30
22956;DHT22;40888;48.148;11.526;2023-04-30T15:35:45;18.40;59.40